Map

Track Data

SID SEASON NUMBER BASIN SUBBASIN NAME ISO_TIME NATURE LAT LON WMO_WIND WMO_PRES WMO_AGENCY TRACK_TYPE DIST2LAND LANDFALL IFLAG USA_AGENCY USA_ATCF_ID USA_LAT USA_LON USA_RECORD USA_STATUS USA_WIND USA_PRES USA_SSHS USA_R34_NE USA_R34_SE USA_R34_SW USA_R34_NW USA_R50_NE USA_R50_SE USA_R50_SW USA_R50_NW USA_R64_NE USA_R64_SE USA_R64_SW USA_R64_NW USA_POCI USA_ROCI USA_RMW USA_EYE TOKYO_LAT TOKYO_LON TOKYO_GRADE TOKYO_WIND TOKYO_PRES TOKYO_R50_DIR TOKYO_R50_LONG TOKYO_R50_SHORT TOKYO_R30_DIR TOKYO_R30_LONG TOKYO_R30_SHORT TOKYO_LAND CMA_LAT CMA_LON CMA_CAT CMA_WIND CMA_PRES HKO_LAT HKO_LON HKO_CAT HKO_WIND HKO_PRES NEWDELHI_LAT NEWDELHI_LON NEWDELHI_GRADE NEWDELHI_WIND NEWDELHI_PRES NEWDELHI_CI NEWDELHI_DP NEWDELHI_POCI REUNION_LAT REUNION_LON REUNION_TYPE REUNION_WIND REUNION_PRES REUNION_TNUM REUNION_CI REUNION_RMW REUNION_R34_NE REUNION_R34_SE REUNION_R34_SW REUNION_R34_NW REUNION_R50_NE REUNION_R50_SE REUNION_R50_SW REUNION_R50_NW REUNION_R64_NE REUNION_R64_SE REUNION_R64_SW REUNION_R64_NW BOM_LAT BOM_LON BOM_TYPE BOM_WIND BOM_PRES BOM_TNUM BOM_CI BOM_RMW BOM_R34_NE BOM_R34_SE BOM_R34_SW BOM_R34_NW BOM_R50_NE BOM_R50_SE BOM_R50_SW BOM_R50_NW BOM_R64_NE BOM_R64_SE BOM_R64_SW BOM_R64_NW BOM_ROCI BOM_POCI BOM_EYE BOM_POS_METHOD BOM_PRES_METHOD NADI_LAT NADI_LON NADI_CAT NADI_WIND NADI_PRES WELLINGTON_LAT WELLINGTON_LON WELLINGTON_WIND WELLINGTON_PRES DS824_LAT DS824_LON DS824_STAGE DS824_WIND DS824_PRES TD9636_LAT TD9636_LON TD9636_STAGE TD9636_WIND TD9636_PRES TD9635_LAT TD9635_LON TD9635_WIND TD9635_PRES TD9635_ROCI NEUMANN_LAT NEUMANN_LON NEUMANN_CLASS NEUMANN_WIND NEUMANN_PRES MLC_LAT MLC_LON MLC_CLASS MLC_WIND MLC_PRES USA_GUST BOM_GUST BOM_GUST_PER REUNION_GUST REUNION_GUST_PER USA_SEAHGT USA_SEARAD_NE USA_SEARAD_SE USA_SEARAD_SW USA_SEARAD_NW STORM_SPEED STORM_DIR
1954003S13142 1954 1 SP EA NOT_NAMED 1954-01-02 23:00:00 NR -13.0000 142.150 1000 bom main 0 0 ______O___O___ -1 -13.0000 142.000 1000 -13.0000 142.300 2 22 113
1954003S13142 1954 1 SP EA NOT_NAMED 1954-01-03 00:00:00 TS -13.1428 142.488 main 0 0 O_____P__OP___ jtwc_sh SH021954 -13.2000 142.600 -1 -13.0939 142.343 -13.1000 142.300 TC 30 1000 -13.1558 142.614 2 21 114
1954003S13142 1954 1 SP EA NOT_NAMED 1954-01-03 03:00:00 TS -13.5562 143.458 main 0 0 P_____P__PP___ SH021954 -13.6383 143.557 -1 -13.3904 143.364 -13.5405 143.252 TC -13.6229 143.557 2 21 114
1954003S13142 1954 1 SP EA NOT_NAMED 1954-01-03 04:00:00 TS -13.7004 143.778 bom main 31 31 P_____O__PP___ SH021954 -13.7882 143.874 -1 -13.5000 143.700 -13.6868 143.570 TC -13.7791 143.869 2 21 116
1954003S13142 1954 1 SP EA NOT_NAMED 1954-01-03 06:00:00 TS -14.0030 144.411 main 33 22 O_____P__PP___ jtwc_sh SH021954 -14.1000 144.500 -1 -13.7427 144.360 -13.9787 144.206 TC -14.0935 144.490 2 20 117
1954003S13142 1954 1 SP EA NOT_NAMED 1954-01-03 09:00:00 TS -14.4693 145.344 main 46 46 P_____P__PP___ SH021954 -14.5997 145.415 -1 -14.1591 145.325 -14.4151 145.158 TC -14.5728 145.405 2 20 118
1954003S13142 1954 1 SP EA NOT_NAMED 1954-01-03 11:00:00 TS -14.7886 145.952 main 78 78 P_____P__PO___ SH021954 -14.9362 146.008 -1 -14.4649 145.952 -14.7053 145.791 TC -14.9000 146.000 2 20 119
1954003S13142 1954 1 SP EA NOT_NAMED 1954-01-03 12:00:00 TS -14.9483 146.252 main 106 102 O_____P__PP___ jtwc_sh SH021954 -15.1000 146.300 -1 -14.6246 146.261 -14.8504 146.106 TC -15.0663 146.292 2 20 119
1954003S13142 1954 1 SP EA NOT_NAMED 1954-01-03 15:00:00 TS -15.4185 147.137 main 182 182 P_____P__PP___ SH021954 -15.5571 147.158 -1 -15.1236 147.172 -15.2855 147.047 TC -15.5695 147.152 2 19 119
1954003S13142 1954 1 SP EA NOT_NAMED 1954-01-03 18:00:00 TS -15.8848 148.007 main 255 255 O_____P__PP___ jtwc_sh SH021954 -16.0000 148.000 -1 -15.6406 148.061 -15.7214 147.977 TC -16.0621 147.996 2 19 119
1954003S13142 1954 1 SP EA NOT_NAMED 1954-01-03 21:00:00 TS -16.3571 148.872 main 318 318 P_____P__PP___ SH021954 -16.4722 148.850 -1 -16.1600 148.930 -16.1591 148.896 TC -16.5222 148.836 2 19 119
1954003S13142 1954 1 SP EA NOT_NAMED 1954-01-03 23:00:00 TS -16.6573 149.447 996 bom main 359 359 P_____O__PO___ SH021954 -16.7669 149.417 -1 -16.5000 149.500 996 4 -16.4526 149.500 TC -16.8000 149.400 2 19 118
1954003S13142 1954 1 SP EA NOT_NAMED 1954-01-04 00:00:00 TS -16.7928 149.738 main 379 379 O_____P__OP___ jtwc_sh SH021954 -16.9000 149.700 -1 -16.6505 149.798 -16.6000 149.800 TC 35 996 -16.9133 149.692 2 18 114
1954003S13142 1954 1 SP EA NOT_NAMED 1954-01-04 03:00:00 TS -17.1565 150.606 main 395 395 P_____P__PP___ SH021954 -17.2145 150.543 -1 -17.0975 150.684 -17.0450 150.688 TC -17.2110 150.573 2 18 113
1954003S13142 1954 1 SP EA NOT_NAMED 1954-01-04 06:00:00 TS -17.5027 151.473 main 422 421 O_____P__PP___ jtwc_sh SH021954 -17.5000 151.400 -1 -17.5387 151.555 -17.4934 151.556 TC -17.4817 151.455 2 18 113
1954003S13142 1954 1 SP EA NOT_NAMED 1954-01-04 09:00:00 TS -17.8663 152.347 main 455 455 P_____P__PP___ SH021954 -17.8198 152.301 -1 -17.9755 152.406 -17.9442 152.403 TC -17.7721 152.328 2 18 114
1954003S13142 1954 1 SP EA NOT_NAMED 1954-01-04 11:00:00 TS -18.1275 152.924 main 495 495 P_____P__PO___ SH021954 -18.0635 152.903 -1 -18.2650 152.960 -18.2456 152.954 TC -18.0000 152.900 2 18 116
1954003S13142 1954 1 SP EA NOT_NAMED 1954-01-04 12:00:00 TS -18.2696 153.210 main 513 513 O_____P__PP___ jtwc_sh SH021954 -18.2000 153.200 -1 -18.4094 153.233 -18.3964 153.225 TC -18.1421 153.192 2 18 119
1954003S13142 1954 1 SP EA NOT_NAMED 1954-01-04 15:00:00 TS -18.7319 154.052 main 544 535 P_____P__PP___ SH021954 -18.6772 154.073 -1 -18.8418 154.033 -18.8491 154.019 TC -18.6140 154.063 2 18 121
1954003S13142 1954 1 SP EA NOT_NAMED 1954-01-04 18:00:00 TS -19.2210 154.858 main 563 556 O_____P__PP___ jtwc_sh SH021954 -19.2000 154.900 -1 -19.2744 154.801 -19.3012 154.782 TC -19.1295 154.909 2 18 123
1954003S13142 1954 1 SP EA NOT_NAMED 1954-01-04 21:00:00 TS -19.7064 155.622 main 588 588 P_____P__PP___ SH021954 -19.7072 155.680 -1 -19.7087 155.534 -19.7518 155.510 TC -19.6571 155.706 2 17 125
1954003S13142 1954 1 SP EA NOT_NAMED 1954-01-04 23:00:00 TS -20.0257 156.102 996 bom main 608 598 P_____O__PO___ SH021954 -20.0389 156.167 -1 -20.0000 156.000 996 -20.0509 155.974 TC -20.0000 156.200 2 16 125
1954003S13142 1954 1 SP EA NOT_NAMED 1954-01-05 00:00:00 TS -20.1821 156.335 main 599 597 O_____P__OP___ jtwc_sh SH021954 -20.2000 156.400 -1 -20.1519 156.243 -20.2000 156.200 TC 35 996 -20.1584 156.433 2 16 126
1954003S13142 1954 1 SP EA NOT_NAMED 1954-01-05 03:00:00 TS -20.6435 157.021 main 603 598 P_____P__PP___ SH021954 -20.6647 157.080 -1 -20.6122 156.950 -20.6512 156.908 TC -20.6246 157.084 2 15 126
1954003S13142 1954 1 SP EA NOT_NAMED 1954-01-05 06:00:00 TS -21.0913 157.657 main 611 611 O_____P__PP___ jtwc_sh SH021954 -21.1000 157.700 -1 -21.0764 157.623 -21.1029 157.583 TC -21.0771 157.677 2 14 127
1954003S13142 1954 1 SP EA NOT_NAMED 1954-01-05 09:00:00 TS -21.5217 158.249 main 617 584 P_____P__PP___ SH021954 -21.4997 158.266 -1 -21.5409 158.257 -21.5529 158.220 TC -21.5157 158.236 2 14 128
1954003S13142 1954 1 SP EA NOT_NAMED 1954-01-05 11:00:00 TS -21.8053 158.624 main 584 568 P_____P__PO___ SH021954 -21.7634 158.622 -1 -21.8487 158.657 -21.8508 158.621 TC -21.8000 158.600 2 14 129
1954003S13142 1954 1 SP EA NOT_NAMED 1954-01-05 12:00:00 TS -21.9484 158.813 main 568 535 O_____P__PP___ jtwc_sh SH021954 -21.9000 158.800 -1 -22.0017 158.849 -21.9989 158.815 TC -21.9412 158.803 2 14 130
1954003S13142 1954 1 SP EA NOT_NAMED 1954-01-05 15:00:00 TS -22.3927 159.373 main 530 507 P_____P__PP___ SH021954 -22.3573 159.350 -1 -22.4552 159.396 -22.4388 159.365 TC -22.3546 159.404 2 13 131
1954003S13142 1954 1 SP EA NOT_NAMED 1954-01-05 18:00:00 TS -22.8246 159.907 main 507 491 O_____P__PP___ jtwc_sh SH021954 -22.8000 159.900 -1 -22.8976 159.893 -22.8705 159.866 TC -22.7547 159.976 2 13 130
1954003S13142 1954 1 SP MM NOT_NAMED 1954-01-05 21:00:00 TS -23.2153 160.424 main 491 479 P_____P__PP___ SH021954 -23.1576 160.488 -1 -23.3252 160.336 -23.2916 160.312 TC -23.1444 160.496 2 12 130
1954003S13142 1954 1 SP MM NOT_NAMED 1954-01-05 23:00:00 TS -23.4663 160.734 998 bom main 485 477 P_____O__PO___ SH021954 -23.3829 160.845 -1 -23.6000 160.600 998 -23.5654 160.577 TC -23.4000 160.800 2 11 132
1954003S13142 1954 1 SP MM NOT_NAMED 1954-01-06 00:00:00 TS -23.5903 160.878 main 477 471 O_____P__OP___ jtwc_sh SH021954 -23.5000 161.000 -1 -23.7236 160.751 -23.7000 160.700 TC 35 998 -23.5280 160.941 2 10 138
1954003S13142 1954 1 SP MM NOT_NAMED 1954-01-06 03:00:00 TS -23.9760 161.240 main 477 468 P_____P__PP___ SH021954 -23.8997 161.345 -1 -24.0798 161.170 -24.0941 161.027 TC -23.9069 161.313 2 10 142
1954003S13142 1954 1 SP MM NOT_NAMED 1954-01-06 06:00:00 TS -24.3551 161.530 main 483 476 O_____P__PP___ jtwc_sh SH021954 -24.3000 161.600 -1 -24.4197 161.535 -24.4753 161.298 TC -24.2807 161.615 2 9 146
1954003S13142 1954 1 SP MM NOT_NAMED 1954-01-06 09:00:00 TS -24.7097 161.791 main 486 486 P_____P__PP___ SH021954 -24.6500 161.865 -1 -24.7509 161.841 -24.8456 161.522 TC -24.6522 161.861 2 8 148
1954003S13142 1954 1 SP MM NOT_NAMED 1954-01-06 11:00:00 TS -24.9437 161.941 main 496 496 P_____P__PO___ SH021954 -24.8802 162.025 -1 -24.9705 162.008 -25.0874 161.648 TC -24.9000 162.000 2 8 150
1954003S13142 1954 1 SP MM NOT_NAMED 1954-01-06 12:00:00 TS -25.0606 162.015 main 508 502 O_____P__PP___ jtwc_sh SH021954 -25.0000 162.100 -1 -25.0809 162.080 -25.2070 161.706 TC -25.0151 162.091 2 8 152
1954003S13142 1954 1 SP MM NOT_NAMED 1954-01-06 15:00:00 TS -25.4269 162.221 main 525 525 P_____P__PP___ SH021954 -25.4000 162.330 -1 -25.4171 162.248 -25.5614 161.857 TC -25.3562 162.339 2 8 157
1954003S13142 1954 1 SP MM NOT_NAMED 1954-01-06 18:00:00 TS -25.7977 162.369 main 553 553 O_____P__PP___ jtwc_sh SH021954 -25.8000 162.500 -1 -25.7670 162.339 -25.9105 161.985 TC -25.7108 162.523 2 8 162
1954003S13142 1954 1 SP MM NOT_NAMED 1954-01-06 21:00:00 TS -26.1418 162.476 main 576 576 P_____P__PP___ SH021954 -26.1199 162.617 -1 -26.1377 162.345 -26.2561 162.096 TC -26.1040 162.611 2 7 169
1954003S13142 1954 1 SP MM NOT_NAMED 1954-01-06 23:00:00 TS -26.3905 162.496 998 bom main 603 603 P_____O__PO___ SH021954 -26.3573 162.625 -1 -26.4000 162.300 998 -26.4855 162.166 TC -26.4000 162.600 2 8 179
1954003S13142 1954 1 SP MM NOT_NAMED 1954-01-07 00:00:00 TS -26.5314 162.491 main 612 612 O_____P__OP___ jtwc_sh SH021954 -26.5000 162.600 -1 -26.5364 162.262 -26.6000 162.200 TC 35 998 -26.5721 162.575 2 10 193
1954003S13142 1954 1 SP MM NOT_NAMED 1954-01-07 03:00:00 TS -27.0604 162.329 main 677 677 P_____P___P___ SH021954 -27.0700 162.410 -1 -26.9658 162.088 TC -27.1358 162.407 2 12 200
1954003S13142 1954 1 SP MM NOT_NAMED 1954-01-07 06:00:00 TS -27.6396 162.041 main 739 739 O_____P___P___ jtwc_sh SH021954 -27.7000 162.100 -1 -27.4221 161.834 TC -27.7363 162.128 2 13 206
1954003S13142 1954 1 SP MM NOT_NAMED 1954-01-07 09:00:00 TS -28.1938 161.713 main 792 770 P_____P___P___ SH021954 -28.2723 161.787 -1 -27.9009 161.510 TC -28.3298 161.769 2 13 209
1954003S13142 1954 1 SP MM NOT_NAMED 1954-01-07 11:00:00 TS -28.5479 161.460 main 770 749 P_____P___O___ SH021954 -28.6306 161.539 -1 -28.2304 161.260 TC -28.7000 161.500 2 13 214
1954003S13142 1954 1 SP MM NOT_NAMED 1954-01-07 12:00:00 TS -28.7143 161.322 main 749 709 O_____P___P___ jtwc_sh SH021954 -28.8000 161.400 -1 -28.3977 161.127 TC -28.8597 161.360 2 13 220
1954003S13142 1954 1 SP MM NOT_NAMED 1954-01-07 15:00:00 TS -29.1894 160.852 main 709 663 P_____P___P___ SH021954 -29.2727 160.907 -1 -28.9078 160.696 TC -29.3045 160.896 2 13 222
1954003S13142 1954 1 SP MM NOT_NAMED 1954-01-07 18:00:00 TS -29.6499 160.368 main 663 623 O_____P___P___ jtwc_sh SH021954 -29.7000 160.400 -1 -29.4269 160.229 TC -29.7169 160.410 2 12 222
1954003S13142 1954 1 SP EA NOT_NAMED 1954-01-07 21:00:00 TS -30.0805 159.924 main 623 609 P_____P___P___ SH021954 -30.0924 159.955 -1 -29.9505 159.736 TC -30.1218 159.956 2 11 220
1954003S13142 1954 1 SP EA NOT_NAMED 1954-01-07 23:00:00 TS -30.3664 159.680 bom main 611 602 P_____O___O___ SH021954 -30.3579 159.705 -1 -30.3000 159.400 TC -30.4000 159.700 2 10 213
1954003S13142 1954 1 SP EA NOT_NAMED 1954-01-08 00:00:00 TS -30.5138 159.599 main 605 592 O_________P___ jtwc_sh SH021954 -30.5000 159.600 -1 -30.5415 159.596 2 10 205
1954003S13142 1954 1 SP EA NOT_NAMED 1954-01-08 03:00:00 TS -30.9810 159.350 main 587 579 P_________P___ SH021954 -30.9848 159.355 -1 -30.9732 159.340 2 10 200
1954003S13142 1954 1 SP EA NOT_NAMED 1954-01-08 06:00:00 TS -31.4769 159.187 main 580 571 O_________P___ jtwc_sh SH021954 -31.5000 159.200 -1 -31.4306 159.162 2 10 194
1954003S13142 1954 1 SP EA NOT_NAMED 1954-01-08 09:00:00 TS -31.9623 159.067 main 576 568 P_________P___ SH021954 -31.9775 159.077 -1 -31.9321 159.048 2 10 190
1954003S13142 1954 1 SP EA NOT_NAMED 1954-01-08 11:00:00 TS -32.3108 159.015 main 573 573 P_________O___ SH021954 -32.3162 159.022 -1 -32.3000 159.000 2 11 187
1954003S13142 1954 1 SP EA NOT_NAMED 1954-01-08 12:00:00 TS -32.4983 158.993 main 578 578 O_________P___ jtwc_sh SH021954 -32.5000 159.000 -1 -32.4958 158.983 2 12 184
1954003S13142 1954 1 SP EA NOT_NAMED 1954-01-08 15:00:00 TS -33.1231 158.952 main 597 591 P_________P___ SH021954 -33.1200 158.945 -1 -33.1262 158.958 2 13 182
1954003S13142 1954 1 SP EA NOT_NAMED 1954-01-08 18:00:00 TS -33.8039 158.936 main 611 611 O_________P___ jtwc_sh SH021954 -33.8000 158.900 -1 -33.8065 158.960 2 14 179
1954003S13142 1954 1 SP EA NOT_NAMED 1954-01-08 21:00:00 NR -34.5178 158.981 main 645 645 __________P___ SH021954 -1 -34.5178 158.981 2 14 177
1954003S13142 1954 1 SP EA NOT_NAMED 1954-01-08 23:00:00 NR -35.0000 159.000 main 666 __________O___ SH021954 -1 -35.0000 159.000 2 15 177

Digital Typhoon Data and Search

About IBTrACS Database

This database is a web-friendly format of International Best Track Archive for Climate Stewardship (IBTrACS), a global best track data archive curated by NOAA dating back to 1842.

Updated: 2021-12-01